Weather reports worldwide

Advertisment
Cartagena, Spain (8434): temperature & dewpoint: 10.07.2018 18:00:00 - 16.07.2018 18:00:00 (CEST)Cartagena, Spain (8434): wind speed & gusts: 10.07.2018 18:00:00 - 16.07.2018 18:00:00 (CEST)Cartagena, Spain (8434): wind direction: 10.07.2018 18:00:00 - 16.07.2018 18:00:00 (CEST)Cartagena, Spain (8434): precipitation: 10.07.2018 18:00:00 - 16.07.2018 18:00:00 (CEST)
Date & Time tt [°C] td [°C] ff [km/h] ff [kn] fx [km/h] fx [kn] dd rr [mm]
16.07.2018 18:00:00 - - - - - - - -
16.07.2018 17:00:00 24,5 17,7 19 10 36 19 SSW 0,0
16.07.2018 16:00:00 24,7 17,9 20 11 37 20 SW 0,0
16.07.2018 15:00:00 25,4 17,6 15 8 36 19 SSW 0,0
16.07.2018 14:00:00 25,5 18,9 16 8 35 19 S -
16.07.2018 13:00:00 25,7 17,9 17 9 30 16 SW 0,0
16.07.2018 12:00:00 27,8 14,8 9 5 21 11 SSW 0,0
16.07.2018 11:00:00 28,5 11,1 6 3 19 10 NW 0,0
16.07.2018 10:00:00 27,2 11,3 10 6 18 10 WNW 0,0
16.07.2018 09:00:00 26,3 11,3 8 5 23 12 WNW 0,0
16.07.2018 08:00:00 25,6 11,0 12 7 26 14 W -
16.07.2018 07:00:00 24,9 10,4 4 2 21 11 WNW 0,0
16.07.2018 06:00:00 25,4 10,1 6 3 25 13 NW 0,0
16.07.2018 05:00:00 25,8 10,4 4 2 13 7 N 0,0
16.07.2018 04:00:00 25,9 12,4 7 4 14 8 NNE 0,0
16.07.2018 03:00:00 25,3 15,6 3 2 14 7 W 0,0
16.07.2018 02:00:00 25,4 20,0 1 1 10 5 W -
16.07.2018 01:00:00 25,4 19,8 5 3 11 6 SSE 0,0
16.07.2018 00:00:00 25,2 18,2 2 1 24 13 W 0,0
15.07.2018 23:00:00 25,1 17,8 6 3 32 17 W 0,0
15.07.2018 22:00:00 24,9 17,9 16 9 36 19 S 0,0
15.07.2018 21:00:00 24,6 19,0 19 10 39 21 S 0,0
15.07.2018 20:00:00 24,4 19,0 20 11 34 19 S -
15.07.2018 19:00:00 25,4 20,0 10 6 22 12 SSW 0,0
15.07.2018 18:00:00 26,2 20,1 13 7 24 13 S 0,0
15.07.2018 17:00:00 26,2 20,1 12 7 31 17 SSW 0,0
15.07.2018 16:00:00 25,5 20,7 11 6 32 17 S 0,0
15.07.2018 15:00:00 25,3 20,5 11 6 26 14 S 0,0
15.07.2018 14:00:00 25,6 20,8 13 7 30 16 S -
15.07.2018 13:00:00 25,9 20,9 11 6 25 13 S 0,0
15.07.2018 12:00:00 27,1 21,4 5 3 17 9 SSE 0,0
15.07.2018 11:00:00 26,2 21,2 6 3 14 8 SSE 0,0
15.07.2018 10:00:00 25,9 20,7 3 2 15 8 SE 0,0
15.07.2018 09:00:00 24,4 21,1 8 4 17 9 S 0,0
15.07.2018 08:00:00 24,0 19,5 3 1 11 6 S -
15.07.2018 07:00:00 24,2 20,1 5 3 10 6 SSW 0,0
15.07.2018 06:00:00 24,3 20,0 2 1 10 6 SW 0,0
15.07.2018 05:00:00 23,3 17,3 1 0 10 5 SE 0,0
15.07.2018 04:00:00 23,6 16,6 1 1 10 5 N 0,0
15.07.2018 03:00:00 24,9 16,9 4 2 14 8 WNW 0,0
15.07.2018 02:00:00 24,7 18,6 7 4 16 9 S -
15.07.2018 01:00:00 24,8 19,0 4 2 11 6 SSE 0,0
15.07.2018 00:00:00 24,8 19,4 4 2 10 5 S 0,0
14.07.2018 23:00:00 25,1 19,0 5 3 11 6 S 0,0
14.07.2018 22:00:00 24,8 19,6 6 3 17 9 WSW 0,0
14.07.2018 21:00:00 25,1 20,6 8 5 21 11 S 0,0
14.07.2018 20:00:00 26,1 20,7 9 5 19 10 S -
14.07.2018 19:00:00 26,4 20,5 8 4 19 11 SW 0,0
14.07.2018 18:00:00 26,6 20,2 10 5 25 13 SW 0,0
14.07.2018 17:00:00 26,6 20,9 11 6 26 14 SSW 0,0
14.07.2018 16:00:00 26,9 21,6 10 5 24 13 S 0,0
14.07.2018 15:00:00 26,7 21,7 9 5 26 14 S 0,0
14.07.2018 14:00:00 26,4 20,9 14 8 26 14 S -
14.07.2018 13:00:00 26,2 20,7 11 6 23 12 S 0,0
14.07.2018 12:00:00 26,4 21,6 5 3 17 9 S 0,0
14.07.2018 11:00:00 25,5 21,8 8 4 18 10 SSE 0,0
14.07.2018 10:00:00 25,9 22,6 6 4 15 8 S 0,0
14.07.2018 09:00:00 24,6 22,5 6 4 16 9 SW 0,0
14.07.2018 08:00:00 24,4 22,5 8 5 21 11 SSW -
14.07.2018 07:00:00 24,4 22,1 5 3 9 5 S 0,0
14.07.2018 06:00:00 24,2 21,5 1 0 5 3 W 0,0
14.07.2018 05:00:00 24,4 21,7 3 2 6 3 WNW 0,0
14.07.2018 04:00:00 24,9 22,2 5 3 9 5 WSW 0,0
14.07.2018 03:00:00 25,1 22,2 3 2 8 4 W 0,0
14.07.2018 02:00:00 25,4 21,7 1 1 5 3 WSW -
14.07.2018 01:00:00 25,9 22,2 1 1 4 2 W 0,0
14.07.2018 00:00:00 25,9 22,0 2 1 7 4 WSW 0,0
13.07.2018 23:00:00 26,4 21,4 5 3 10 5 E 0,0
13.07.2018 22:00:00 27,2 21,5 4 2 14 8 E 0,0
13.07.2018 21:00:00 27,6 20,4 6 3 16 9 NE 0,0
13.07.2018 20:00:00 28,2 20,0 7 4 17 9 NE -
13.07.2018 19:00:00 29,8 19,2 6 4 21 11 NE 0,0
13.07.2018 18:00:00 30,4 19,1 4 2 23 12 NE 0,0
13.07.2018 17:00:00 29,6 19,3 9 5 24 13 NE 0,0
13.07.2018 16:00:00 29,0 19,0 9 5 26 14 ENE 0,0
13.07.2018 15:00:00 29,4 19,7 10 6 30 16 ENE 0,0
13.07.2018 14:00:00 29,3 19,6 9 5 27 15 NE -
13.07.2018 13:00:00 28,5 18,9 13 7 31 17 NE 0,0
13.07.2018 12:00:00 28,8 19,1 10 5 24 13 NE 0,0
13.07.2018 11:00:00 28,1 21,6 3 1 13 7 N 0,0
13.07.2018 10:00:00 27,0 21,7 4 2 13 7 ENE 0,0
13.07.2018 09:00:00 25,9 22,2 4 2 11 6 N 0,0
13.07.2018 08:00:00 25,1 21,8 4 2 16 9 N -
13.07.2018 07:00:00 24,7 21,4 7 4 15 8 NNW 0,0
13.07.2018 06:00:00 24,7 21,4 5 3 15 8 N 0,0
13.07.2018 05:00:00 24,8 21,5 4 2 20 11 NW 0,0
13.07.2018 04:00:00 24,6 21,3 5 3 15 8 NW 0,0
13.07.2018 03:00:00 24,7 21,2 6 3 18 10 NNW 0,0
13.07.2018 02:00:00 24,9 21,4 7 4 16 8 N -
13.07.2018 01:00:00 25,1 21,6 6 3 14 8 NNE 0,0
13.07.2018 00:00:00 25,4 22,1 4 2 8 5 NNE 0,0
12.07.2018 23:00:00 25,2 22,1 3 2 10 5 WSW 0,0
12.07.2018 22:00:00 25,6 21,9 4 2 10 5 S 0,0
12.07.2018 21:00:00 26,0 21,9 3 2 13 7 SW 0,0
12.07.2018 20:00:00 26,3 21,9 7 4 14 7 SSW -
12.07.2018 19:00:00 26,7 21,9 9 5 21 12 WSW 0,0
12.07.2018 18:00:00 26,9 21,6 9 5 22 12 SSW 0,0
12.07.2018 17:00:00 28,0 21,0 9 5 18 10 SSW 0,0
12.07.2018 16:00:00 29,0 21,2 6 3 19 11 S 0,0
12.07.2018 15:00:00 28,6 21,1 8 5 21 11 S 0,0
12.07.2018 14:00:00 29,2 20,6 9 5 18 10 S -
12.07.2018 13:00:00 30,0 20,0 4 2 15 8 E 0,0
12.07.2018 12:00:00 29,2 20,6 4 2 14 8 ENE 0,0
12.07.2018 11:00:00 28,3 21,3 4 2 14 8 NNE 0,0
12.07.2018 10:00:00 26,4 21,2 5 3 15 8 NE 0,0
12.07.2018 09:00:00 25,1 21,4 5 3 14 7 N 0,0
12.07.2018 08:00:00 23,8 20,7 5 3 11 6 NNW -
12.07.2018 07:00:00 23,2 20,0 5 3 14 7 NW 0,0
12.07.2018 06:00:00 23,6 20,1 5 3 16 8 NW 0,0
12.07.2018 05:00:00 23,8 20,3 6 3 15 8 NNW 0,0
12.07.2018 04:00:00 23,9 20,4 6 4 13 7 NNW 0,0
12.07.2018 03:00:00 23,6 19,1 6 4 14 8 NNW 0,0
12.07.2018 02:00:00 23,5 18,4 7 4 13 7 N -
12.07.2018 01:00:00 23,7 18,6 4 2 6 3 WNW 0,0
12.07.2018 00:00:00 24,0 19,1 4 2 12 6 WSW 0,0
11.07.2018 23:00:00 24,2 19,1 8 4 16 9 S 0,0
11.07.2018 22:00:00 24,5 18,9 7 4 16 8 S 0,0
11.07.2018 21:00:00 24,8 19,0 5 3 18 10 S 0,0
11.07.2018 20:00:00 25,0 19,1 11 6 22 12 SSW -
11.07.2018 19:00:00 25,2 20,5 9 5 21 11 S 0,0
11.07.2018 18:00:00 26,3 21,5 9 5 19 10 S 0,0
11.07.2018 17:00:00 27,4 21,7 8 4 20 11 S 0,0
11.07.2018 16:00:00 27,4 20,5 8 4 23 13 S 0,0
11.07.2018 15:00:00 26,2 21,2 10 5 22 12 S 0,0
11.07.2018 14:00:00 25,7 21,1 10 6 21 12 S -
11.07.2018 13:00:00 26,5 21,3 8 4 20 11 SSE 0,0
11.07.2018 12:00:00 26,5 21,0 8 4 19 11 S 0,0
11.07.2018 11:00:00 29,3 18,4 2 1 11 6 N 0,0
11.07.2018 10:00:00 27,3 19,9 4 2 11 6 N 0,0
11.07.2018 09:00:00 24,3 20,2 4 2 9 5 N 0,0
11.07.2018 08:00:00 22,1 19,5 3 2 9 5 N -
11.07.2018 07:00:00 22,2 19,9 2 1 5 3 W 0,0
11.07.2018 06:00:00 22,8 20,5 1 1 8 5 SSW 0,0
11.07.2018 05:00:00 23,0 20,5 4 2 11 6 SSW 0,0
11.07.2018 04:00:00 23,0 20,3 4 2 14 7 SSW 0,0
11.07.2018 03:00:00 23,1 20,2 7 4 16 9 SSW 0,0
11.07.2018 02:00:00 23,4 20,5 6 4 22 12 SSW -
11.07.2018 01:00:00 23,4 20,5 6 4 21 11 SSW 0,0
11.07.2018 00:00:00 23,6 20,7 10 5 24 13 SSW 0,0
10.07.2018 23:00:00 23,8 20,3 11 6 24 13 SSW 0,0
10.07.2018 22:00:00 24,1 19,8 13 7 28 15 SSW 0,0
10.07.2018 21:00:00 24,3 19,8 16 9 29 16 SSW 0,0
10.07.2018 20:00:00 24,9 20,2 10 6 21 11 SSW -
10.07.2018 19:00:00 25,9 20,9 6 3 24 13 S 0,0
10.07.2018 18:00:00 25,2 21,1 14 7 31 17 SSW 0,0

tt = temperature
td = dewpoint
ff = wind speed
fx = gusts
dd = wind direction
rr = precipitation

Next stations